LZPP METAR and TAF | Updated Today

LZPP METAR

Piešťany Airport

Observation time: 21 min. ago

LZPP 292030Z AUTO 36004KT 9999 BKN039/// 10/09 Q1006

Need help? Read our tutorial on how to read METARs or read the parsed version below.

Piešťany Airport (LZPP) METAR

  • Weather conditions on Thu, 29 Sep 2022 20:30:00 +0000 (21 min. ago):
  • Present conditions: Dry
  • Clouds: Broken sky at 1189 meters
  • Visibility: Greater than 10 km
  • Wind: 360 degrees at 4 knots
  • Temperature: 10 celsius
  • Dew point: 9 celsius
  • Pressure: 1006 millibars
  • Remarks: None


Useful to know...

LZPP TAF

Piešťany Airport

TAF LZPP 291715Z 2918/3003 06004KT 9999 FEW040 TEMPO 2920/3003 RA FEW017 BKN025
Observation time: 3:36 hr. ago
Need help? Read our tutorial on how to read TAFs or read the parsed version below.

Parsed version of TAF for Piešťany Airport (LZPP)

  • From 29 September at 18:00 UTC, to day 30 of the month at 03:00 UTC
  • Clouds: A few at 1219 meters
  • Visibility: Greater than 10 km
  • Wind: 60 degrees at 4
  • Expected to arise temporarily, from 29 September at 20:00 UTC, to day 30 of the month at 03:00 UTC
  • Clouds: A few at 518 meters; broken sky at 762 meters
  • Other: Rain